createdAt,value
2023-04-28T00:01:23.029Z,20.50
2023-04-28T00:03:24.907Z,20.40
2023-04-28T00:05:26.880Z,20.40
2023-04-28T00:07:28.669Z,20.40
2023-04-28T00:09:30.480Z,20.40
2023-04-28T00:11:32.232Z,20.50
2023-04-28T00:13:34.017Z,20.50
2023-04-28T00:15:35.716Z,20.40
2023-04-28T00:17:37.523Z,20.40
2023-04-28T00:19:39.324Z,20.40
2023-04-28T00:21:41.061Z,20.50
2023-04-28T00:23:42.771Z,20.40
2023-04-28T00:25:44.561Z,20.40
2023-04-28T00:27:46.276Z,20.40
2023-04-28T00:29:48.045Z,20.40
2023-04-28T00:31:49.885Z,20.40
2023-04-28T00:33:51.714Z,20.40
2023-04-28T00:36:00.157Z,20.40
2023-04-28T00:38:01.964Z,20.40
2023-04-28T00:40:03.888Z,20.40
2023-04-28T00:42:05.665Z,20.40
2023-04-28T00:44:07.424Z,20.40
2023-04-28T00:46:09.208Z,20.40
2023-04-28T00:48:11.015Z,20.40
2023-04-28T00:50:14.316Z,20.40
2023-04-28T00:52:16.101Z,20.40
2023-04-28T00:54:18.224Z,20.40
2023-04-28T00:56:20.345Z,20.40
2023-04-28T00:58:22.310Z,20.40
2023-04-28T01:00:24.836Z,20.40
2023-04-28T01:02:27.145Z,20.30
2023-04-28T01:04:29.682Z,20.30
2023-04-28T01:06:31.950Z,20.40
2023-04-28T01:08:36.931Z,20.30
2023-04-28T01:10:43.737Z,20.30
2023-04-28T01:12:50.750Z,20.30
2023-04-28T01:14:52.660Z,20.40
2023-04-28T01:16:54.796Z,20.30
2023-04-28T01:18:56.700Z,20.30
2023-04-28T01:20:58.513Z,20.30
2023-04-28T01:23:00.305Z,20.30
2023-04-28T01:25:02.180Z,20.30
2023-04-28T01:27:04.486Z,20.30
2023-04-28T01:29:06.411Z,20.30
2023-04-28T01:31:08.272Z,20.30
2023-04-28T01:33:10.128Z,20.30
2023-04-28T01:35:11.891Z,20.30
2023-04-28T01:37:13.651Z,20.30
2023-04-28T01:39:15.430Z,20.30
2023-04-28T01:41:17.193Z,20.30
2023-04-28T01:43:19.114Z,20.30
2023-04-28T01:45:20.890Z,20.30
2023-04-28T01:47:22.689Z,20.30
2023-04-28T01:49:24.432Z,20.30
2023-04-28T01:51:26.204Z,20.30
2023-04-28T01:53:28.283Z,20.30
2023-04-28T01:55:30.047Z,20.30
2023-04-28T01:57:32.448Z,20.30
2023-04-28T01:59:34.225Z,20.30
2023-04-28T02:01:36.423Z,20.30
2023-04-28T02:03:38.517Z,20.30
2023-04-28T02:05:40.350Z,20.30
2023-04-28T02:07:42.118Z,20.30
2023-04-28T02:09:43.880Z,20.30
2023-04-28T02:11:45.710Z,20.30
2023-04-28T02:13:47.449Z,20.30
2023-04-28T02:15:49.359Z,20.30
2023-04-28T02:17:51.134Z,20.30
2023-04-28T02:19:56.029Z,20.30
2023-04-28T02:21:57.778Z,20.30
2023-04-28T02:23:59.531Z,20.30
2023-04-28T02:26:01.735Z,20.30
2023-04-28T02:28:03.725Z,20.30
2023-04-28T02:30:06.018Z,20.30
2023-04-28T02:32:08.023Z,20.40
2023-04-28T02:34:09.794Z,20.40
2023-04-28T02:36:11.548Z,20.40
2023-04-28T02:38:13.271Z,20.50
2023-04-28T02:40:15.131Z,20.50
2023-04-28T02:42:16.899Z,20.50
2023-04-28T02:44:18.907Z,20.60
2023-04-28T02:46:20.749Z,20.60
2023-04-28T02:48:24.486Z,20.60
2023-04-28T02:50:26.216Z,20.60
2023-04-28T02:52:28.277Z,20.60
2023-04-28T02:54:30.023Z,20.60
2023-04-28T02:56:33.273Z,20.70
2023-04-28T02:58:35.790Z,20.70
2023-04-28T03:00:37.610Z,20.70
2023-04-28T03:02:39.410Z,20.70
2023-04-28T03:04:41.461Z,20.70
2023-04-28T03:06:43.494Z,20.70
2023-04-28T03:08:45.289Z,20.70
2023-04-28T03:10:47.158Z,20.70
2023-04-28T03:12:48.938Z,20.70
2023-04-28T03:14:50.661Z,20.70
2023-04-28T03:16:52.560Z,20.70
2023-04-28T03:18:54.311Z,20.70
2023-04-28T03:20:56.069Z,20.70
2023-04-28T03:22:57.828Z,20.70
2023-04-28T03:24:59.768Z,20.80
2023-04-28T03:27:02.869Z,20.80
2023-04-28T03:29:05.039Z,20.70
2023-04-28T03:31:07.101Z,20.80
2023-04-28T03:33:08.914Z,20.70
2023-04-28T03:35:10.705Z,20.70
2023-04-28T03:37:14.042Z,20.70
2023-04-28T03:39:15.991Z,20.70
2023-04-28T03:41:17.831Z,20.80
2023-04-28T03:43:19.581Z,20.80
2023-04-28T03:45:40.878Z,20.80
2023-04-28T03:47:43.460Z,20.80
2023-04-28T03:49:45.330Z,20.70
2023-04-28T03:51:47.091Z,20.70
2023-04-28T03:53:49.657Z,20.80
2023-04-28T03:55:51.386Z,20.70
2023-04-28T03:57:53.848Z,20.80
2023-04-28T03:59:55.613Z,20.80
2023-04-28T04:01:57.528Z,20.80
2023-04-28T04:03:59.692Z,20.70
2023-04-28T04:06:01.907Z,20.80
2023-04-28T04:08:03.743Z,20.80
2023-04-28T04:10:06.286Z,20.70
2023-04-28T04:12:09.878Z,20.70
2023-04-28T04:14:12.014Z,20.70
2023-04-28T04:16:14.374Z,20.70
2023-04-28T04:18:16.267Z,20.80
2023-04-28T04:20:43.832Z,20.70
2023-04-28T04:22:45.646Z,20.70
2023-04-28T04:24:48.137Z,20.70
2023-04-28T04:26:49.952Z,20.70
2023-04-28T04:29:03.278Z,20.80
2023-04-28T04:31:07.209Z,20.70
2023-04-28T04:33:09.143Z,20.80
2023-04-28T04:35:11.182Z,20.70
2023-04-28T04:37:12.930Z,20.70
2023-04-28T04:39:29.656Z,20.70
2023-04-28T04:41:31.386Z,20.70
2023-04-28T04:43:49.281Z,20.70
2023-04-28T04:45:51.240Z,20.80
2023-04-28T04:47:53.395Z,20.80
2023-04-28T04:49:55.236Z,20.80
2023-04-28T04:51:57.752Z,20.80
2023-04-28T04:53:59.681Z,20.80
2023-04-28T04:56:01.572Z,20.80
2023-04-28T04:58:03.858Z,20.80
2023-04-28T05:00:21.106Z,20.80
2023-04-28T05:02:23.257Z,20.70
2023-04-28T05:04:25.665Z,20.80
2023-04-28T05:06:27.651Z,20.70
2023-04-28T05:08:29.616Z,20.70
2023-04-28T05:10:32.510Z,20.70
2023-04-28T05:12:35.197Z,20.70
2023-04-28T05:14:36.966Z,20.70
2023-04-28T05:16:39.024Z,20.70
2023-04-28T05:18:51.075Z,20.70
2023-04-28T05:20:52.882Z,20.70
2023-04-28T05:22:54.666Z,20.70
2023-04-28T05:24:56.489Z,20.70
2023-04-28T05:26:58.663Z,20.70
2023-04-28T05:29:00.459Z,20.70
2023-04-28T05:31:02.491Z,20.70
2023-04-28T05:33:05.598Z,20.70
2023-04-28T05:35:07.665Z,20.70
2023-04-28T05:37:09.533Z,20.70
2023-04-28T05:39:13.635Z,20.70
2023-04-28T05:41:16.677Z,20.70
2023-04-28T05:43:19.081Z,20.70
2023-04-28T05:45:20.977Z,20.70
2023-04-28T05:47:22.830Z,20.70
2023-04-28T05:49:25.343Z,20.70
2023-04-28T05:51:27.073Z,20.70
2023-04-28T05:53:28.867Z,20.70
2023-04-28T05:55:30.717Z,20.70
2023-04-28T05:57:41.767Z,20.70
2023-04-28T05:59:51.939Z,20.70
2023-04-28T06:01:53.900Z,20.70
2023-04-28T06:03:55.843Z,20.70
2023-04-28T06:05:57.899Z,20.70
2023-04-28T06:08:00.293Z,20.70
2023-04-28T06:10:02.121Z,20.70
2023-04-28T06:12:04.042Z,20.70
2023-04-28T06:14:05.887Z,20.70
2023-04-28T06:16:07.922Z,20.70
2023-04-28T06:18:09.938Z,20.70
2023-04-28T06:20:12.177Z,20.70
2023-04-28T06:22:13.973Z,20.70
2023-04-28T06:24:15.976Z,20.70
2023-04-28T06:26:20.537Z,20.70
2023-04-28T06:28:22.310Z,20.70
2023-04-28T06:30:24.373Z,20.70
2023-04-28T06:32:26.185Z,20.70
2023-04-28T06:34:27.962Z,20.70
2023-04-28T06:36:29.695Z,20.70
2023-04-28T06:38:31.515Z,20.70
2023-04-28T06:40:33.310Z,20.70
2023-04-28T06:42:36.728Z,20.70
2023-04-28T06:44:45.955Z,20.70
2023-04-28T06:46:47.879Z,20.70
2023-04-28T06:48:49.742Z,20.70
2023-04-28T06:50:52.084Z,20.70
2023-04-28T06:52:53.801Z,20.70
2023-04-28T06:54:56.285Z,20.70
2023-04-28T06:56:59.208Z,20.70
2023-04-28T06:59:00.975Z,20.70
2023-04-28T07:01:02.786Z,20.70
2023-04-28T07:03:05.157Z,20.70
2023-04-28T07:05:07.133Z,20.70
2023-04-28T07:07:08.912Z,20.70
2023-04-28T07:09:10.798Z,20.70
2023-04-28T07:11:12.601Z,20.70
2023-04-28T07:13:14.364Z,20.70
2023-04-28T07:15:16.138Z,20.70
2023-04-28T07:17:17.869Z,20.70
2023-04-28T07:19:19.702Z,20.70
2023-04-28T07:21:21.445Z,20.70
2023-04-28T07:23:23.526Z,20.70
2023-04-28T07:25:25.376Z,20.70
2023-04-28T07:27:27.197Z,20.70
2023-04-28T07:29:29.170Z,20.70
2023-04-28T07:31:31.072Z,20.70
2023-04-28T07:33:32.952Z,20.70
2023-04-28T07:35:34.775Z,20.70
2023-04-28T07:37:37.154Z,20.70
2023-04-28T07:39:39.026Z,20.70
2023-04-28T07:41:40.743Z,20.70
2023-04-28T07:43:42.621Z,20.70
2023-04-28T07:45:44.413Z,20.70
2023-04-28T07:47:46.300Z,20.80
2023-04-28T07:49:48.090Z,20.70
2023-04-28T07:51:49.977Z,20.70
2023-04-28T07:53:51.704Z,20.60
2023-04-28T07:55:54.611Z,20.50
2023-04-28T07:57:56.384Z,20.60
2023-04-28T07:59:58.176Z,20.60
2023-04-28T08:01:59.912Z,20.60
2023-04-28T08:04:01.984Z,20.70
2023-04-28T08:06:03.998Z,20.70
2023-04-28T08:08:06.117Z,20.70
2023-04-28T08:10:08.665Z,20.70
2023-04-28T08:12:10.407Z,20.70
2023-04-28T08:14:12.367Z,20.80
2023-04-28T08:16:14.794Z,20.80
2023-04-28T08:18:16.674Z,20.80
2023-04-28T08:20:18.434Z,20.80
2023-04-28T08:22:20.182Z,20.80
2023-04-28T08:24:22.085Z,20.80
2023-04-28T08:26:24.803Z,20.80
2023-04-28T08:28:27.289Z,20.80
2023-04-28T08:30:29.236Z,20.80
2023-04-28T08:32:31.141Z,20.80
2023-04-28T08:34:33.352Z,20.80
2023-04-28T08:36:35.127Z,20.80
2023-04-28T08:38:36.853Z,20.80
2023-04-28T08:40:38.673Z,20.80
2023-04-28T08:42:41.099Z,20.80
2023-04-28T08:44:42.870Z,20.80
2023-04-28T08:46:45.180Z,20.80
2023-04-28T08:48:49.073Z,20.80
2023-04-28T08:50:51.974Z,20.90
2023-04-28T08:52:55.246Z,20.90
2023-04-28T08:54:58.882Z,20.90
2023-04-28T08:57:01.117Z,20.90
2023-04-28T08:59:03.377Z,20.90
2023-04-28T09:01:05.494Z,20.90
2023-04-28T09:03:07.414Z,20.90
2023-04-28T09:05:10.533Z,20.90
2023-04-28T09:07:12.502Z,20.90
2023-04-28T09:09:20.229Z,20.90
2023-04-28T09:11:22.055Z,20.90
2023-04-28T09:13:26.457Z,20.90
2023-04-28T09:15:38.410Z,20.90
2023-04-28T09:17:50.498Z,21.00
2023-04-28T09:19:52.287Z,21.00
2023-04-28T09:21:55.455Z,21.00
2023-04-28T09:23:57.269Z,21.00
2023-04-28T09:26:06.089Z,21.00
2023-04-28T09:28:20.838Z,21.00
2023-04-28T09:30:38.274Z,21.00
2023-04-28T09:32:40.152Z,21.00
2023-04-28T09:34:45.806Z,21.00
2023-04-28T09:36:47.784Z,21.00
2023-04-28T09:38:49.677Z,21.00
2023-04-28T09:40:51.491Z,21.00
2023-04-28T09:42:53.294Z,21.00
2023-04-28T09:44:55.026Z,21.00
2023-04-28T09:46:56.829Z,20.90
2023-04-28T09:49:01.199Z,21.00
2023-04-28T09:51:04.434Z,21.00
2023-04-28T09:53:06.287Z,21.00
2023-04-28T09:55:08.358Z,21.00
2023-04-28T09:57:10.678Z,20.90
2023-04-28T09:59:13.237Z,20.90
2023-04-28T10:01:15.103Z,20.90
2023-04-28T10:03:17.155Z,20.90
2023-04-28T10:05:19.372Z,20.90
2023-04-28T10:07:21.698Z,21.00
2023-04-28T10:09:24.826Z,21.00
2023-04-28T10:11:27.100Z,21.00
2023-04-28T10:13:29.050Z,21.00
2023-04-28T10:15:32.191Z,21.00
2023-04-28T10:17:34.703Z,21.00
2023-04-28T10:19:37.070Z,21.00
2023-04-28T10:21:43.854Z,21.00
2023-04-28T10:24:04.117Z,21.00
2023-04-28T10:26:10.943Z,21.00
2023-04-28T10:28:12.861Z,21.10
2023-04-28T10:32:24.467Z,21.00
2023-04-28T10:34:26.279Z,21.10
2023-04-28T10:36:46.474Z,21.10
2023-04-28T10:39:06.682Z,21.10
2023-04-28T10:41:28.415Z,21.10
2023-04-28T10:43:30.308Z,21.10
2023-04-28T10:45:55.254Z,21.10
2023-04-28T10:48:00.767Z,21.10
2023-04-28T10:50:06.981Z,21.10
2023-04-28T10:52:27.624Z,21.10
2023-04-28T10:54:29.424Z,21.10
2023-04-28T10:56:31.241Z,21.10
2023-04-28T10:58:33.330Z,21.10
2023-04-28T11:00:35.170Z,21.10
2023-04-28T11:02:38.529Z,21.10
2023-04-28T11:05:01.507Z,21.10
2023-04-28T11:07:10.135Z,21.10
2023-04-28T11:09:15.101Z,21.10
2023-04-28T11:11:18.186Z,21.10
2023-04-28T11:13:29.668Z,21.10
2023-04-28T11:15:31.784Z,21.10
2023-04-28T11:17:39.595Z,21.10
2023-04-28T11:19:44.773Z,21.10
2023-04-28T11:21:46.935Z,21.20
2023-04-28T11:23:49.155Z,21.10
2023-04-28T11:25:54.218Z,21.10
2023-04-28T11:28:03.070Z,21.20
2023-04-28T11:30:19.279Z,21.20
2023-04-28T11:32:28.268Z,21.10
2023-04-28T11:34:30.085Z,21.20
2023-04-28T11:36:36.201Z,21.20
2023-04-28T11:38:44.637Z,21.20
2023-04-28T11:40:56.548Z,21.20
2023-04-28T11:42:59.067Z,21.20
2023-04-28T11:45:01.920Z,21.20
2023-04-28T11:47:04.372Z,21.20
2023-04-28T11:49:06.725Z,21.20
2023-04-28T11:51:08.475Z,21.20
2023-04-28T11:53:10.242Z,21.20
2023-04-28T11:55:16.225Z,21.20
2023-04-28T11:57:18.816Z,21.20
2023-04-28T11:59:27.724Z,21.20
2023-04-28T12:01:29.858Z,21.20
2023-04-28T12:03:31.755Z,21.20
2023-04-28T12:05:33.801Z,21.20
2023-04-28T12:07:44.603Z,21.20
2023-04-28T12:09:47.879Z,21.20
2023-04-28T12:11:56.580Z,21.10
2023-04-28T12:14:05.249Z,21.10
2023-04-28T12:16:07.811Z,21.00
2023-04-28T12:18:10.364Z,21.00
2023-04-28T12:20:30.176Z,21.10
2023-04-28T12:22:42.940Z,21.10
2023-04-28T12:24:44.709Z,21.20
2023-04-28T12:26:46.913Z,21.10
2023-04-28T12:28:48.666Z,21.10
2023-04-28T12:30:50.521Z,21.10
2023-04-28T12:32:52.296Z,21.10
2023-04-28T12:34:54.134Z,21.20
2023-04-28T12:36:55.894Z,21.20
2023-04-28T12:38:57.827Z,21.20
2023-04-28T12:40:59.797Z,21.20
2023-04-28T12:43:01.704Z,21.20
2023-04-28T12:45:03.708Z,21.30
2023-04-28T12:47:09.028Z,21.20
2023-04-28T12:49:10.847Z,21.30
2023-04-28T12:51:12.589Z,21.20
2023-04-28T12:53:14.338Z,21.30
2023-04-28T12:55:16.247Z,21.20
2023-04-28T12:57:18.724Z,21.30
2023-04-28T12:59:21.060Z,21.20
2023-04-28T13:01:23.016Z,21.20
2023-04-28T13:03:25.073Z,21.20
2023-04-28T13:05:26.850Z,21.20
2023-04-28T13:07:28.784Z,21.30
2023-04-28T13:09:30.577Z,21.30
2023-04-28T13:11:32.455Z,21.20
2023-04-28T13:13:34.272Z,21.20
2023-04-28T13:15:38.518Z,21.30
2023-04-28T13:17:40.599Z,21.20
2023-04-28T13:19:42.759Z,21.20
2023-04-28T13:21:44.666Z,21.20
2023-04-28T13:23:46.487Z,21.20
2023-04-28T13:25:48.233Z,21.20
2023-04-28T13:27:50.051Z,21.20
2023-04-28T13:29:51.750Z,21.20
2023-04-28T13:31:53.688Z,21.20
2023-04-28T13:33:55.618Z,21.30
2023-04-28T13:35:58.333Z,21.20
2023-04-28T13:38:00.178Z,21.30
2023-04-28T13:40:01.956Z,21.20
2023-04-28T13:42:03.779Z,21.20
2023-04-28T13:44:05.721Z,21.30
2023-04-28T13:46:07.726Z,21.20
2023-04-28T13:48:09.721Z,21.20
2023-04-28T13:50:11.604Z,21.20
2023-04-28T13:52:13.792Z,21.30
2023-04-28T13:54:15.623Z,21.20
2023-04-28T13:56:17.429Z,21.30
2023-04-28T13:58:19.524Z,21.30
2023-04-28T14:00:21.412Z,21.30
2023-04-28T14:02:23.315Z,21.30
2023-04-28T14:04:25.526Z,21.30
2023-04-28T14:06:27.599Z,21.30
2023-04-28T14:08:29.449Z,21.30
2023-04-28T14:10:31.175Z,21.30
2023-04-28T14:12:32.950Z,21.20
2023-04-28T14:14:35.528Z,21.20
2023-04-28T14:16:38.246Z,21.20
2023-04-28T14:18:40.080Z,21.30
2023-04-28T14:20:41.942Z,21.20
2023-04-28T14:22:43.878Z,21.20
2023-04-28T14:24:45.920Z,21.30
2023-04-28T14:26:47.856Z,21.30
2023-04-28T14:28:49.701Z,21.30
2023-04-28T14:30:53.136Z,21.30
2023-04-28T14:32:55.099Z,21.30
2023-04-28T14:34:56.910Z,21.30
2023-04-28T14:36:58.730Z,21.30
2023-04-28T14:39:00.550Z,21.30
2023-04-28T14:41:02.428Z,21.30
2023-04-28T14:43:04.257Z,21.20
2023-04-28T14:45:07.136Z,21.20
2023-04-28T14:47:08.933Z,21.20
2023-04-28T14:49:11.003Z,21.20
2023-04-28T14:51:13.221Z,21.20
2023-04-28T14:53:15.122Z,21.20
2023-04-28T14:55:16.902Z,21.30
2023-04-28T14:57:18.719Z,21.30
2023-04-28T14:59:20.517Z,21.30
2023-04-28T15:01:22.378Z,21.30
2023-04-28T15:03:24.275Z,21.30
2023-04-28T15:05:26.186Z,21.30
2023-04-28T15:07:27.964Z,21.30
2023-04-28T15:09:29.818Z,21.30
2023-04-28T15:11:32.090Z,21.30
2023-04-28T15:13:34.090Z,21.30
2023-04-28T15:15:35.857Z,21.40
2023-04-28T15:17:37.780Z,21.40
2023-04-28T15:19:39.551Z,21.40
2023-04-28T15:21:41.477Z,21.40
2023-04-28T15:23:43.207Z,21.40
2023-04-28T15:25:44.998Z,21.50
2023-04-28T15:27:46.732Z,21.50
2023-04-28T15:29:48.510Z,21.50
2023-04-28T15:31:50.286Z,21.40
2023-04-28T15:33:52.490Z,21.40
2023-04-28T15:35:54.235Z,21.30
2023-04-28T15:37:56.036Z,21.30
2023-04-28T15:39:57.767Z,21.30
2023-04-28T15:41:59.585Z,21.30
2023-04-28T15:44:01.417Z,21.40
2023-04-28T15:46:04.252Z,21.40
2023-04-28T15:48:06.506Z,21.40
2023-04-28T15:50:09.211Z,21.40
2023-04-28T15:52:11.004Z,21.40
2023-04-28T15:54:12.816Z,21.40
2023-04-28T15:56:14.539Z,21.40
2023-04-28T15:58:16.325Z,21.40
2023-04-28T16:00:18.293Z,21.40
2023-04-28T16:02:21.452Z,21.50
2023-04-28T16:04:23.245Z,21.40
2023-04-28T16:06:25.177Z,21.50
2023-04-28T16:08:27.039Z,21.50
2023-04-28T16:10:28.826Z,21.50
2023-04-28T16:12:30.735Z,21.50
2023-04-28T16:16:34.707Z,21.40
2023-04-28T16:18:36.644Z,21.30
2023-04-28T16:20:38.559Z,21.20
2023-04-28T16:22:41.137Z,21.20
2023-04-28T16:24:42.894Z,21.20
2023-04-28T16:26:44.678Z,21.20
2023-04-28T16:28:46.379Z,21.30
2023-04-28T16:30:48.200Z,21.30
2023-04-28T16:32:49.939Z,21.30
2023-04-28T16:34:52.038Z,21.30
2023-04-28T16:36:54.111Z,21.30
2023-04-28T16:38:55.873Z,21.30
2023-04-28T16:40:57.599Z,21.30
2023-04-28T16:42:59.390Z,21.30
2023-04-28T16:45:01.118Z,21.40
2023-04-28T16:47:03.320Z,21.40
2023-04-28T16:49:05.289Z,21.40
2023-04-28T16:51:09.538Z,21.40
2023-04-28T16:53:11.254Z,21.50
2023-04-28T16:55:13.121Z,21.50
2023-04-28T16:57:14.861Z,21.50
2023-04-28T16:59:16.622Z,21.50
2023-04-28T17:01:18.446Z,21.50
2023-04-28T17:03:20.488Z,21.50
2023-04-28T17:05:22.245Z,21.60
2023-04-28T17:07:25.609Z,21.60
2023-04-28T17:09:27.610Z,21.60
2023-04-28T17:11:29.448Z,21.70
2023-04-28T17:13:31.613Z,21.70
2023-04-28T17:15:33.461Z,21.70
2023-04-28T17:17:35.314Z,21.70
2023-04-28T17:19:40.093Z,21.70
2023-04-28T17:21:41.828Z,21.70
2023-04-28T17:23:43.622Z,21.80
2023-04-28T17:25:45.344Z,21.80
2023-04-28T17:27:47.149Z,21.90
2023-04-28T17:29:49.020Z,21.90
2023-04-28T17:31:50.957Z,21.80
2023-04-28T17:33:53.614Z,21.80
2023-04-28T17:35:55.408Z,21.90
2023-04-28T17:37:57.158Z,21.80
2023-04-28T17:39:59.057Z,21.90
2023-04-28T17:42:00.835Z,21.80
2023-04-28T17:44:02.614Z,21.80
2023-04-28T17:46:04.400Z,21.80
2023-04-28T17:48:06.367Z,21.80
2023-04-28T17:50:08.500Z,21.90
2023-04-28T17:52:10.319Z,21.90
2023-04-28T17:54:12.024Z,21.90
2023-04-28T17:56:13.938Z,21.90
2023-04-28T17:58:15.705Z,21.90
2023-04-28T18:00:17.728Z,21.90
2023-04-28T18:02:19.633Z,22.00
2023-04-28T18:04:21.752Z,22.00
2023-04-28T18:06:23.525Z,22.00
2023-04-28T18:08:25.299Z,22.00
2023-04-28T18:10:27.023Z,22.00
2023-04-28T18:12:28.818Z,22.00
2023-04-28T18:14:31.183Z,22.00
2023-04-28T18:16:33.004Z,22.00
2023-04-28T18:18:35.637Z,22.00
2023-04-28T18:20:37.505Z,22.00
2023-04-28T18:22:39.258Z,22.00
2023-04-28T18:24:41.044Z,22.00
2023-04-28T18:26:42.791Z,22.00
2023-04-28T18:28:47.244Z,22.00
2023-04-28T18:30:49.073Z,22.00
2023-04-28T18:32:50.966Z,22.00
2023-04-28T18:34:52.773Z,22.00
2023-04-28T18:36:54.637Z,22.00
2023-04-28T18:38:56.414Z,22.00
2023-04-28T18:40:58.247Z,22.00
2023-04-28T18:43:00.214Z,22.00
2023-04-28T18:45:01.996Z,22.00
2023-04-28T18:47:03.737Z,22.00
2023-04-28T18:49:05.953Z,22.00
2023-04-28T18:51:07.755Z,21.90
2023-04-28T18:53:10.537Z,21.90
2023-04-28T18:55:12.273Z,21.90
2023-04-28T18:57:14.098Z,21.90
2023-04-28T18:59:15.836Z,21.90
2023-04-28T19:01:17.695Z,21.90
2023-04-28T19:03:20.536Z,21.90
2023-04-28T19:05:22.624Z,21.90
2023-04-28T19:07:24.405Z,21.90
2023-04-28T19:09:26.164Z,21.90
2023-04-28T19:11:27.878Z,21.90
2023-04-28T19:13:29.728Z,21.90
2023-04-28T19:15:31.494Z,21.90
2023-04-28T19:17:33.319Z,21.90
2023-04-28T19:19:35.062Z,21.90
2023-04-28T19:21:40.555Z,21.90
2023-04-28T19:23:42.290Z,21.80
2023-04-28T19:25:44.110Z,21.90
2023-04-28T19:27:45.932Z,21.90
2023-04-28T19:29:47.852Z,21.90
2023-04-28T19:31:49.670Z,22.00
2023-04-28T19:33:51.475Z,22.00
2023-04-28T19:35:53.515Z,22.00
2023-04-28T19:37:55.287Z,21.90
2023-04-28T19:39:57.047Z,21.90
2023-04-28T19:41:58.819Z,22.00
2023-04-28T19:44:00.539Z,21.90
2023-04-28T19:46:02.386Z,21.90
2023-04-28T19:48:04.559Z,21.80
2023-04-28T19:50:07.221Z,21.90
2023-04-28T19:52:08.990Z,21.90
2023-04-28T19:54:10.754Z,21.90
2023-04-28T19:56:12.477Z,21.90
2023-04-28T19:58:14.342Z,21.90
2023-04-28T20:00:16.294Z,21.80
2023-04-28T20:02:18.327Z,21.80
2023-04-28T20:04:20.621Z,21.80
2023-04-28T20:06:22.513Z,21.80
2023-04-28T20:08:24.291Z,21.80
2023-04-28T20:10:26.117Z,21.80
2023-04-28T20:12:27.855Z,21.80
2023-04-28T20:14:29.898Z,21.80
2023-04-28T20:16:31.888Z,21.80
2023-04-28T20:18:34.873Z,21.80
2023-04-28T20:20:36.627Z,21.80
2023-04-28T20:22:38.440Z,21.70
2023-04-28T20:24:40.161Z,21.70
2023-04-28T20:26:42.134Z,21.70
2023-04-28T20:28:45.104Z,21.70
2023-04-28T20:30:46.935Z,21.70
2023-04-28T20:32:48.836Z,21.70
2023-04-28T20:34:50.732Z,21.70
2023-04-28T20:36:52.715Z,21.70
2023-04-28T20:38:54.501Z,21.60
2023-04-28T20:40:56.306Z,21.60
2023-04-28T20:42:58.078Z,21.60
2023-04-28T20:44:59.819Z,21.60
2023-04-28T20:47:01.689Z,21.60
2023-04-28T20:49:03.524Z,21.70
2023-04-28T20:51:05.656Z,21.60
2023-04-28T20:53:07.395Z,21.70
2023-04-28T20:55:10.126Z,21.60
2023-04-28T20:57:11.873Z,21.60
2023-04-28T20:59:13.696Z,21.60
2023-04-28T21:01:15.466Z,21.60
2023-04-28T21:03:17.417Z,21.60
2023-04-28T21:05:19.269Z,21.60
2023-04-28T21:07:21.047Z,21.60
2023-04-28T21:09:22.849Z,21.60
2023-04-28T21:11:24.647Z,21.60
2023-04-28T21:13:26.360Z,21.60
2023-04-28T21:15:28.171Z,21.50
2023-04-28T21:17:29.957Z,21.60
2023-04-28T21:19:31.955Z,21.50
2023-04-28T21:21:33.652Z,21.50
2023-04-28T21:23:35.472Z,21.50
2023-04-28T21:25:37.170Z,21.40
2023-04-28T21:27:39.128Z,21.40
2023-04-28T21:29:40.910Z,21.50
2023-04-28T21:31:42.758Z,21.50
2023-04-28T21:33:44.504Z,21.40
2023-04-28T21:35:46.317Z,21.40
2023-04-28T21:37:48.071Z,21.40
2023-04-28T21:39:50.020Z,21.50
2023-04-28T21:41:51.899Z,21.40
2023-04-28T21:43:53.689Z,21.40
2023-04-28T21:45:55.476Z,21.40
2023-04-28T21:47:57.394Z,21.40
2023-04-28T21:49:59.248Z,21.40
2023-04-28T21:52:01.055Z,21.40
2023-04-28T21:54:02.842Z,21.40
2023-04-28T21:56:04.761Z,21.30
2023-04-28T21:58:06.558Z,21.30
2023-04-28T22:00:08.739Z,21.40
2023-04-28T22:02:14.919Z,21.30
2023-04-28T22:04:17.295Z,21.30
2023-04-28T22:06:19.870Z,21.30
2023-04-28T22:08:21.725Z,21.30
2023-04-28T22:10:23.446Z,21.30
2023-04-28T22:12:25.259Z,21.30
2023-04-28T22:14:40.433Z,21.30
2023-04-28T22:16:43.293Z,21.30
2023-04-28T22:18:45.042Z,21.30
2023-04-28T22:20:46.889Z,21.20
2023-04-28T22:22:48.654Z,21.20
2023-04-28T22:24:50.511Z,21.30
2023-04-28T22:26:52.253Z,21.20
2023-04-28T22:28:54.066Z,21.20
2023-04-28T22:30:55.858Z,21.20
2023-04-28T22:32:57.686Z,21.30
2023-04-28T22:34:59.494Z,21.30
2023-04-28T22:37:01.347Z,21.20
2023-04-28T22:39:03.954Z,21.20
2023-04-28T22:41:05.777Z,21.20
2023-04-28T22:43:07.505Z,21.20
2023-04-28T22:45:09.621Z,21.20
2023-04-28T22:47:11.368Z,21.20
2023-04-28T22:49:13.249Z,21.10
2023-04-28T22:51:14.951Z,21.20
2023-04-28T22:53:16.774Z,21.10
2023-04-28T22:55:18.596Z,21.20
2023-04-28T22:57:20.380Z,21.20
2023-04-28T22:59:22.236Z,21.10
2023-04-28T23:01:24.173Z,21.10
2023-04-28T23:03:26.057Z,21.10
2023-04-28T23:05:27.978Z,21.20
2023-04-28T23:07:29.815Z,21.10
2023-04-28T23:09:31.584Z,21.10
2023-04-28T23:11:33.368Z,21.10
2023-04-28T23:13:35.230Z,21.10
2023-04-28T23:15:36.954Z,21.10
2023-04-28T23:17:38.767Z,21.10
2023-04-28T23:19:40.487Z,21.00
2023-04-28T23:21:42.253Z,21.10
2023-04-28T23:23:44.000Z,21.10
2023-04-28T23:25:45.834Z,21.10
2023-04-28T23:27:47.558Z,21.10
2023-04-28T23:29:49.590Z,21.10
2023-04-28T23:31:51.526Z,21.10
2023-04-28T23:33:53.304Z,21.10
2023-04-28T23:35:55.078Z,21.10
2023-04-28T23:37:56.879Z,21.00
2023-04-28T23:39:58.620Z,21.00
2023-04-28T23:42:00.442Z,21.00
2023-04-28T23:44:02.169Z,21.00
2023-04-28T23:46:04.011Z,21.00
2023-04-28T23:48:06.034Z,21.00
2023-04-28T23:50:08.002Z,21.00
2023-04-28T23:52:09.803Z,21.00
2023-04-28T23:54:11.656Z,21.00
2023-04-28T23:56:13.437Z,21.00
2023-04-28T23:58:15.351Z,21.00
